createdAt,value
2016-02-04T00:00:23.418Z,52.86
2016-02-04T00:01:16.844Z,52.57
2016-02-04T00:02:16.893Z,52.86
2016-02-04T00:03:16.943Z,52.76
2016-02-04T00:04:16.993Z,52.76
2016-02-04T00:05:17.042Z,52.76
2016-02-04T00:06:17.107Z,52.67
2016-02-04T00:07:17.156Z,52.57
2016-02-04T00:08:17.206Z,52.86
2016-02-04T00:09:17.272Z,52.76
2016-02-04T00:10:17.322Z,48.74
2016-02-04T00:11:17.370Z,45.26
2016-02-04T00:12:17.420Z,45.16
2016-02-04T00:13:24.349Z,47.17
2016-02-04T00:14:24.460Z,49.36
2016-02-04T00:15:17.570Z,50.12
2016-02-04T00:16:17.635Z,51.28
2016-02-04T00:17:17.700Z,51.37
2016-02-04T00:18:17.735Z,51.37
2016-02-04T00:19:17.800Z,51.46
2016-02-04T00:20:17.849Z,52.14
2016-02-04T00:21:17.930Z,52.23
2016-02-04T00:22:17.965Z,52.26
2016-02-04T00:23:18.014Z,52.07
2016-02-04T00:24:18.064Z,52.26
2016-02-04T00:25:18.113Z,52.07
2016-02-04T00:26:18.162Z,52.36
2016-02-04T00:27:18.228Z,52.55
2016-02-04T00:28:18.278Z,52.26
2016-02-04T00:29:22.953Z,52.07
2016-02-04T00:30:18.392Z,52.45
2016-02-04T00:31:18.442Z,52.16
2016-02-04T00:32:18.493Z,52.74
2016-02-04T00:33:18.542Z,52.45
2016-02-04T00:34:18.607Z,51.97
2016-02-04T00:35:25.954Z,52.55
2016-02-04T00:36:18.706Z,52.55
2016-02-04T00:37:18.787Z,52.45
2016-02-04T00:38:18.806Z,52.93
2016-02-04T00:39:18.870Z,52.83
2016-02-04T00:40:18.904Z,52.64
2016-02-04T00:41:18.975Z,52.83
2016-02-04T00:42:19.040Z,52.83
2016-02-04T00:43:19.075Z,52.83
2016-02-04T00:44:19.140Z,52.74
2016-02-04T00:45:19.190Z,52.93
2016-02-04T00:46:19.240Z,52.55
2016-02-04T00:47:19.305Z,52.93
2016-02-04T00:48:19.343Z,52.74
2016-02-04T00:49:19.408Z,52.74
2016-02-04T00:50:19.458Z,52.55
2016-02-04T00:51:19.523Z,52.55
2016-02-04T00:52:19.559Z,52.83
2016-02-04T00:53:19.607Z,53.03
2016-02-04T00:54:19.673Z,53.5
2016-02-04T00:55:24.504Z,52.83
2016-02-04T00:56:19.787Z,53.7
2016-02-04T00:57:19.838Z,53.5
2016-02-04T00:58:19.888Z,53.5
2016-02-04T00:59:19.937Z,53.5
2016-02-04T01:00:24.456Z,53.31
2016-02-04T01:01:20.052Z,53.41
2016-02-04T01:02:20.117Z,53.5
2016-02-04T01:03:20.152Z,53.12
2016-02-04T01:04:20.202Z,53.31
2016-02-04T01:05:20.267Z,53.22
2016-02-04T01:06:27.364Z,53.22
2016-02-04T01:07:20.366Z,53.5
2016-02-04T01:08:20.416Z,53.79
2016-02-04T01:09:27.545Z,53.7
2016-02-04T01:10:27.688Z,53.79
2016-02-04T01:11:20.581Z,53.22
2016-02-04T01:12:20.632Z,53.79
2016-02-04T01:13:20.681Z,53.41
2016-02-04T01:14:20.771Z,53.7
2016-02-04T01:15:20.777Z,53.6
2016-02-04T01:16:20.818Z,53.6
2016-02-04T01:17:20.855Z,53.79
2016-02-04T01:18:20.894Z,53.41
2016-02-04T01:19:20.953Z,53.6
2016-02-04T01:20:20.999Z,53.67
2016-02-04T01:21:21.045Z,53.89
2016-02-04T01:22:21.106Z,53.79
2016-02-04T01:23:21.153Z,53.6
2016-02-04T01:24:21.201Z,53.6
2016-02-04T01:25:21.249Z,53.48
2016-02-04T01:26:21.313Z,53.79
2016-02-04T01:27:21.362Z,53.79
2016-02-04T01:28:21.409Z,53.89
2016-02-04T01:29:21.458Z,53.99
2016-02-04T01:30:25.960Z,53.86
2016-02-04T01:31:26.040Z,54.56
2016-02-04T01:32:21.637Z,54.24
2016-02-04T01:33:21.670Z,54.27
2016-02-04T01:34:21.719Z,54.37
2016-02-04T01:35:21.785Z,54.24
2016-02-04T01:36:21.851Z,54.05
2016-02-04T01:37:21.886Z,54.24
2016-02-04T01:38:21.934Z,54.27
2016-02-04T01:39:21.999Z,54.27
2016-02-04T01:40:22.049Z,53.96
2016-02-04T01:41:22.099Z,53.99
2016-02-04T01:42:22.149Z,54.63
2016-02-04T01:43:22.213Z,54.72
2016-02-04T01:44:26.560Z,54.53
2016-02-04T01:45:26.621Z,54.63
2016-02-04T01:46:22.373Z,54.63
2016-02-04T01:47:22.423Z,54.27
2016-02-04T01:48:22.473Z,54.34
2016-02-04T01:49:22.523Z,54.15
2016-02-04T01:50:22.573Z,54.05
2016-02-04T01:51:22.638Z,54.44
2016-02-04T01:52:22.703Z,54.53
2016-02-04T01:53:22.581Z,54.34
2016-02-04T01:54:22.786Z,54.15
2016-02-04T01:55:22.837Z,54.34
2016-02-04T01:56:22.901Z,54.72
2016-02-04T01:57:22.967Z,54.53
2016-02-04T01:58:23.016Z,54.53
2016-02-04T01:59:29.770Z,54.53
2016-02-04T02:00:28.162Z,54.44
2016-02-04T02:01:23.162Z,54.24
2016-02-04T02:02:23.212Z,54.63
2016-02-04T02:03:30.389Z,54.72
2016-02-04T02:04:23.327Z,54.91
2016-02-04T02:05:23.377Z,54.53
2016-02-04T02:06:23.426Z,54.82
2016-02-04T02:07:23.475Z,54.72
2016-02-04T02:08:23.542Z,54.63
2016-02-04T02:09:23.576Z,55.01
2016-02-04T02:10:23.641Z,54.53
2016-02-04T02:11:23.723Z,54.82
2016-02-04T02:12:23.771Z,55.21
2016-02-04T02:13:28.273Z,54.15
2016-02-04T02:14:23.870Z,54.63
2016-02-04T02:15:23.904Z,54.91
2016-02-04T02:16:23.959Z,54.53
2016-02-04T02:17:24.040Z,54.44
2016-02-04T02:18:24.061Z,55.01
2016-02-04T02:19:24.125Z,54.53
2016-02-04T02:20:28.222Z,54.34
2016-02-04T02:21:24.255Z,54.15
2016-02-04T02:22:24.274Z,54.44
2016-02-04T02:23:24.340Z,55.01
2016-02-04T02:24:24.388Z,54.44
2016-02-04T02:25:24.454Z,54.72
2016-02-04T02:26:24.504Z,54.34
2016-02-04T02:27:24.537Z,54.72
2016-02-04T02:28:28.696Z,54.82
2016-02-04T02:29:24.652Z,54.63
2016-02-04T02:30:24.718Z,54.91
2016-02-04T02:31:24.783Z,54.63
2016-02-04T02:32:24.818Z,54.53
2016-02-04T02:33:24.882Z,54.82
2016-02-04T02:34:31.448Z,54.53
2016-02-04T02:35:24.981Z,54.53
2016-02-04T02:36:25.032Z,54.72
2016-02-04T02:37:25.081Z,54.91
2016-02-04T02:38:25.131Z,55.11
2016-02-04T02:39:29.289Z,55.11
2016-02-04T02:40:25.247Z,54.91
2016-02-04T02:41:25.297Z,54.82
2016-02-04T02:42:25.346Z,54.82
2016-02-04T02:43:25.411Z,55.11
2016-02-04T02:44:25.476Z,55.49
2016-02-04T02:45:25.494Z,54.91
2016-02-04T02:46:29.778Z,55.49
2016-02-04T02:47:25.611Z,55.01
2016-02-04T02:48:25.676Z,54.72
2016-02-04T02:49:25.757Z,55.01
2016-02-04T02:50:25.775Z,54.91
2016-02-04T02:51:25.840Z,55.21
2016-02-04T02:52:25.895Z,55.21
2016-02-04T02:53:25.927Z,55.21
2016-02-04T02:54:25.994Z,54.91
2016-02-04T02:55:32.730Z,55.01
2016-02-04T02:56:32.811Z,54.91
2016-02-04T02:57:26.143Z,55.01
2016-02-04T02:58:26.208Z,55.11
2016-02-04T02:59:26.259Z,55.01
2016-02-04T03:00:26.308Z,55.11
2016-02-04T03:01:26.373Z,55.11
2016-02-04T03:02:26.408Z,55.21
2016-02-04T03:03:26.456Z,55.21
2016-02-04T03:04:26.522Z,55.01
2016-02-04T03:05:26.587Z,55.11
2016-02-04T03:06:26.622Z,55.21
2016-02-04T03:07:26.671Z,55.01
2016-02-04T03:08:26.735Z,55.78
2016-02-04T03:09:33.816Z,55.49
2016-02-04T03:10:33.883Z,55.78
2016-02-04T03:11:26.900Z,55.4
2016-02-04T03:12:26.950Z,55.4
2016-02-04T03:13:26.999Z,55.49
2016-02-04T03:14:27.049Z,55.78
2016-02-04T03:15:27.114Z,55.4
2016-02-04T03:16:27.164Z,55.11
2016-02-04T03:17:27.214Z,55.11
2016-02-04T03:18:27.264Z,55.49
2016-02-04T03:19:27.316Z,54.91
2016-02-04T03:20:27.368Z,55.01
2016-02-04T03:21:27.418Z,55.3
2016-02-04T03:22:27.483Z,55.49
2016-02-04T03:23:27.532Z,55.49
2016-02-04T03:24:27.584Z,55.4
2016-02-04T03:25:27.634Z,55.68
2016-02-04T03:26:27.699Z,55.49
2016-02-04T03:27:31.795Z,55.78
2016-02-04T03:28:27.795Z,55.78
2016-02-04T03:29:27.845Z,55.87
2016-02-04T03:30:27.909Z,55.68
2016-02-04T03:31:27.960Z,55.87
2016-02-04T03:32:28.026Z,55.78
2016-02-04T03:33:28.060Z,55.68
2016-02-04T03:34:28.110Z,55.78
2016-02-04T03:35:28.159Z,55.87
2016-02-04T03:36:34.481Z,55.3
2016-02-04T03:37:28.262Z,55.68
2016-02-04T03:38:28.313Z,55.58
2016-02-04T03:39:28.362Z,55.68
2016-02-04T03:40:35.040Z,55.49
2016-02-04T03:41:28.493Z,55.87
2016-02-04T03:42:28.526Z,55.68
2016-02-04T03:43:35.329Z,55.68
2016-02-04T03:44:35.332Z,55.78
2016-02-04T03:45:28.691Z,55.49
2016-02-04T03:46:28.757Z,55.68
2016-02-04T03:47:28.782Z,55.78
2016-02-04T03:48:28.848Z,55.49
2016-02-04T03:49:28.898Z,55.87
2016-02-04T03:50:28.963Z,55.68
2016-02-04T03:51:29.029Z,55.97
2016-02-04T03:52:29.063Z,55.87
2016-02-04T03:53:29.113Z,55.68
2016-02-04T03:54:29.162Z,55.87
2016-02-04T03:55:29.227Z,55.4
2016-02-04T03:56:29.295Z,55.4
2016-02-04T03:57:36.453Z,55.68
2016-02-04T03:58:36.472Z,55.78
2016-02-04T03:59:29.428Z,55.21
2016-02-04T04:00:29.492Z,55.49
2016-02-04T04:01:29.542Z,55.68
2016-02-04T04:02:29.608Z,55.68
2016-02-04T04:03:29.644Z,55.78
2016-02-04T04:04:29.693Z,55.68
2016-02-04T04:05:29.758Z,55.68
2016-02-04T04:06:29.808Z,55.68
2016-02-04T04:07:29.873Z,55.49
2016-02-04T04:08:34.537Z,55.68
2016-02-04T04:09:34.664Z,55.78
2016-02-04T04:10:30.010Z,55.68
2016-02-04T04:11:30.077Z,55.78
2016-02-04T04:12:30.142Z,55.3
2016-02-04T04:13:30.191Z,56.16
2016-02-04T04:14:30.225Z,55.87
2016-02-04T04:15:30.274Z,55.97
2016-02-04T04:16:30.339Z,55.97
2016-02-04T04:17:30.386Z,56.07
2016-02-04T04:18:30.451Z,55.97
2016-02-04T04:19:30.500Z,55.97
2016-02-04T04:20:30.550Z,55.87
2016-02-04T04:21:30.600Z,55.78
2016-02-04T04:22:30.650Z,55.78
2016-02-04T04:23:37.686Z,56.26
2016-02-04T04:24:37.798Z,55.68
2016-02-04T04:25:30.817Z,55.87
2016-02-04T04:26:30.866Z,55.97
2016-02-04T04:27:30.917Z,55.78
2016-02-04T04:28:30.967Z,55.49
2016-02-04T04:29:31.015Z,55.87
2016-02-04T04:30:31.081Z,55.97
2016-02-04T04:31:31.146Z,56.16
2016-02-04T04:32:31.181Z,55.78
2016-02-04T04:33:31.246Z,55.87
2016-02-04T04:34:31.280Z,55.78
2016-02-04T04:35:31.347Z,56.07
2016-02-04T04:36:31.412Z,55.87
2016-02-04T04:37:31.461Z,56.26
2016-02-04T04:38:31.511Z,55.87
2016-02-04T04:39:36.124Z,55.78
2016-02-04T04:40:31.610Z,55.78
2016-02-04T04:41:31.661Z,55.78
2016-02-04T04:42:31.725Z,55.97
2016-02-04T04:43:31.775Z,55.78
2016-02-04T04:44:31.825Z,55.78
2016-02-04T04:45:31.875Z,55.87
2016-02-04T04:46:36.614Z,55.97
2016-02-04T04:47:31.978Z,55.87
2016-02-04T04:48:32.026Z,56.26
2016-02-04T04:49:32.093Z,55.87
2016-02-04T04:50:38.862Z,55.97
2016-02-04T04:51:32.207Z,55.75
2016-02-04T04:52:32.257Z,55.97
2016-02-04T04:53:32.307Z,55.68
2016-02-04T04:54:32.356Z,55.68
2016-02-04T04:55:32.406Z,55.87
2016-02-04T04:56:32.486Z,56.23
2016-02-04T04:57:39.364Z,55.87
2016-02-04T04:58:32.554Z,56.16
2016-02-04T04:59:32.620Z,55.65
2016-02-04T05:00:32.670Z,56.07
2016-02-04T05:01:32.735Z,56.26
2016-02-04T05:02:37.347Z,56.16
2016-02-04T05:03:32.831Z,56.07
2016-02-04T05:04:32.881Z,55.97
2016-02-04T05:05:32.931Z,56.16
2016-02-04T05:06:32.981Z,56.07
2016-02-04T05:07:33.064Z,56.07
2016-02-04T05:08:39.976Z,56.26
2016-02-04T05:09:33.148Z,56.26
2016-02-04T05:10:33.197Z,56.26
2016-02-04T05:11:33.262Z,56.07
2016-02-04T05:12:33.312Z,56.07
2016-02-04T05:13:39.986Z,56.23
2016-02-04T05:14:33.411Z,56.13
2016-02-04T05:15:33.461Z,56.04
2016-02-04T05:16:33.526Z,56.16
2016-02-04T05:17:33.577Z,56.52
2016-02-04T05:18:33.614Z,56.23
2016-02-04T05:19:33.680Z,56.42
2016-02-04T05:20:33.729Z,56.35
2016-02-04T05:21:33.794Z,56.61
2016-02-04T05:22:33.844Z,56.42
2016-02-04T05:23:33.878Z,56.42
2016-02-04T05:24:33.945Z,56.54
2016-02-04T05:25:33.995Z,56.52
2016-02-04T05:26:34.059Z,56.35
2016-02-04T05:27:34.109Z,56.52
2016-02-04T05:28:37.565Z,56.61
2016-02-04T05:29:37.661Z,56.32
2016-02-04T05:30:34.273Z,56.42
2016-02-04T05:31:34.307Z,56.32
2016-02-04T05:32:34.389Z,56.52
2016-02-04T05:33:34.423Z,56.61
2016-02-04T05:34:34.473Z,56.64
2016-02-04T05:35:34.523Z,56.52
2016-02-04T05:36:34.587Z,56.42
2016-02-04T05:37:34.637Z,56.42
2016-02-04T05:38:34.687Z,56.52
2016-02-04T05:39:34.725Z,56.61
2016-02-04T05:40:34.791Z,56.52
2016-02-04T05:41:34.855Z,56.61
2016-02-04T05:42:34.905Z,56.42
2016-02-04T05:43:40.705Z,56.32
2016-02-04T05:44:40.769Z,56.23
2016-02-04T05:45:35.054Z,56.23
2016-02-04T05:46:35.119Z,56.42
2016-02-04T05:47:35.012Z,56.9
2016-02-04T05:48:35.249Z,56.9
2016-02-04T05:49:35.252Z,56.99
2016-02-04T05:50:35.333Z,56.99
2016-02-04T05:51:35.386Z,57.09
2016-02-04T05:52:35.420Z,56.52
2016-02-04T05:53:35.485Z,56.52
2016-02-04T05:54:39.269Z,56.9
2016-02-04T05:55:39.366Z,56.42
2016-02-04T05:56:35.650Z,56.42
2016-02-04T05:57:35.700Z,56.61
2016-02-04T05:58:35.734Z,56.04
2016-02-04T05:59:35.800Z,56.42
2016-02-04T06:00:35.848Z,56.52
2016-02-04T06:01:35.914Z,56.52
2016-02-04T06:02:35.948Z,56.9
2016-02-04T06:03:36.017Z,56.54
2016-02-04T06:04:36.065Z,56.23
2016-02-04T06:05:36.115Z,56.61
2016-02-04T06:06:36.164Z,56.42
2016-02-04T06:07:36.230Z,56.52
2016-02-04T06:08:40.264Z,56.52
2016-02-04T06:09:40.298Z,56.99
2016-02-04T06:10:36.378Z,56.71
2016-02-04T06:11:36.431Z,56.81
2016-02-04T06:12:36.496Z,56.52
2016-02-04T06:13:36.547Z,56.9
2016-02-04T06:14:36.595Z,56.99
2016-02-04T06:15:36.647Z,56.71
2016-02-04T06:16:36.696Z,56.61
2016-02-04T06:17:36.747Z,56.71
2016-02-04T06:18:43.344Z,56.9
2016-02-04T06:19:36.859Z,56.81
2016-02-04T06:20:36.894Z,56.9
2016-02-04T06:21:36.959Z,56.61
2016-02-04T06:22:37.009Z,56.52
2016-02-04T06:23:37.075Z,56.61
2016-02-04T06:24:37.109Z,56.61
2016-02-04T06:25:42.193Z,56.9
2016-02-04T06:26:37.224Z,56.99
2016-02-04T06:27:37.273Z,56.9
2016-02-04T06:28:37.338Z,56.61
2016-02-04T06:29:37.373Z,56.9
2016-02-04T06:30:41.816Z,56.42
2016-02-04T06:31:37.488Z,56.61
2016-02-04T06:32:37.382Z,56.61
2016-02-04T06:33:37.602Z,56.99
2016-02-04T06:34:37.652Z,56.42
2016-02-04T06:35:37.703Z,56.81
2016-02-04T06:36:44.647Z,56.52
2016-02-04T06:37:37.818Z,56.71
2016-02-04T06:38:37.855Z,56.99
2016-02-04T06:39:37.905Z,56.52
2016-02-04T06:40:37.969Z,56.32
2016-02-04T06:41:38.019Z,56.9
2016-02-04T06:42:38.084Z,56.9
2016-02-04T06:43:38.119Z,57.09
2016-02-04T06:44:38.184Z,56.9
2016-02-04T06:45:38.234Z,56.99
2016-02-04T06:46:38.283Z,56.81
2016-02-04T06:47:38.348Z,56.71
2016-02-04T06:48:38.430Z,56.52
2016-02-04T06:49:38.432Z,56.61
2016-02-04T06:50:38.481Z,56.42
2016-02-04T06:51:38.563Z,56.61
2016-02-04T06:52:38.603Z,56.61
2016-02-04T06:53:38.652Z,56.52
2016-02-04T06:54:38.700Z,56.71
2016-02-04T06:55:38.751Z,56.42
2016-02-04T06:56:38.816Z,56.42
2016-02-04T06:57:38.849Z,56.42
2016-02-04T06:58:38.915Z,56.42
2016-02-04T06:59:38.964Z,56.52
2016-02-04T07:00:39.030Z,56.52
2016-02-04T07:01:39.080Z,56.42
2016-02-04T07:02:39.149Z,56.52
2016-02-04T07:03:39.182Z,56.9
2016-02-04T07:04:39.232Z,56.61
2016-02-04T07:05:39.282Z,56.9
2016-02-04T07:06:39.347Z,56.9
2016-02-04T07:07:39.397Z,56.81
2016-02-04T07:08:39.446Z,56.9
2016-02-04T07:09:43.605Z,56.61
2016-02-04T07:10:39.545Z,56.61
2016-02-04T07:11:39.611Z,56.81
2016-02-04T07:12:39.661Z,56.81
2016-02-04T07:13:39.709Z,56.9
2016-02-04T07:14:39.763Z,56.99
2016-02-04T07:15:39.813Z,57.09
2016-02-04T07:16:44.065Z,56.99
2016-02-04T07:17:39.927Z,57.09
2016-02-04T07:18:39.962Z,56.71
2016-02-04T07:19:40.027Z,56.9
2016-02-04T07:20:40.077Z,57.09
2016-02-04T07:21:40.120Z,56.99
2016-02-04T07:22:40.169Z,56.9
2016-02-04T07:23:40.233Z,56.9
2016-02-04T07:24:40.284Z,56.9
2016-02-04T07:25:40.349Z,57.19
2016-02-04T07:26:40.399Z,57.28
2016-02-04T07:27:44.514Z,57.28
2016-02-04T07:28:40.500Z,56.99
2016-02-04T07:29:40.550Z,57.19
2016-02-04T07:30:40.615Z,57.38
2016-02-04T07:31:40.666Z,56.99
2016-02-04T07:32:40.718Z,57.19
2016-02-04T07:33:40.767Z,53.36
2016-02-04T07:34:40.818Z,51.92
2016-02-04T07:35:45.134Z,55.85
2016-02-04T07:36:40.918Z,55.85
2016-02-04T07:37:40.982Z,55.75
2016-02-04T07:38:41.032Z,56.23
2016-02-04T07:39:41.084Z,56.04
2016-02-04T07:40:41.133Z,56.42
2016-02-04T07:41:41.184Z,56.99
2016-02-04T07:42:45.657Z,56.52
2016-02-04T07:43:41.299Z,56.52
2016-02-04T07:44:41.349Z,56.52
2016-02-04T07:45:41.399Z,56.61
2016-02-04T07:46:48.512Z,56.99
2016-02-04T07:47:41.500Z,56.9
2016-02-04T07:48:41.564Z,56.99
2016-02-04T07:49:41.614Z,56.81
2016-02-04T07:50:41.664Z,56.52
2016-02-04T07:51:41.730Z,56.52
2016-02-04T07:52:41.768Z,56.61
2016-02-04T07:53:47.052Z,56.9
2016-02-04T07:54:41.866Z,56.52
2016-02-04T07:55:41.931Z,56.61
2016-02-04T07:56:41.965Z,56.9
2016-02-04T07:57:42.030Z,56.52
2016-02-04T07:58:42.079Z,56.99
2016-02-04T07:59:42.133Z,56.23
2016-02-04T08:00:42.199Z,56.71
2016-02-04T08:01:42.249Z,56.71
2016-02-04T08:02:42.283Z,56.42
2016-02-04T08:03:42.347Z,56.9
2016-02-04T08:04:42.385Z,56.71
2016-02-04T08:05:42.450Z,56.81
2016-02-04T08:06:42.504Z,56.52
2016-02-04T08:07:42.554Z,56.42
2016-02-04T08:08:46.043Z,56.61
2016-02-04T08:09:46.109Z,56.61
2016-02-04T08:10:42.718Z,56.42
2016-02-04T08:11:42.769Z,56.61
2016-02-04T08:12:42.819Z,56.52
2016-02-04T08:13:42.867Z,55.85
2016-02-04T08:14:42.934Z,52.59
2016-02-04T08:15:42.984Z,50
2016-02-04T08:16:43.033Z,50.1
2016-02-04T08:17:43.083Z,51.92
2016-02-04T08:18:43.150Z,52.87
2016-02-04T08:19:43.184Z,54.6
2016-02-04T08:20:43.234Z,53.52
2016-02-04T08:21:43.284Z,53.42
2016-02-04T08:22:43.333Z,52.95
2016-02-04T08:23:49.305Z,54.38
2016-02-04T08:24:53.279Z,53.71
2016-02-04T08:25:47.217Z,53.04
2016-02-04T08:26:43.563Z,53.71
2016-02-04T08:27:43.597Z,54.38
2016-02-04T08:28:43.662Z,54.57
2016-02-04T08:29:43.727Z,54.77
2016-02-04T08:30:43.761Z,53.81
2016-02-04T08:31:43.810Z,53.91
2016-02-04T08:32:43.876Z,54.38
2016-02-04T08:33:43.925Z,54.67
2016-02-04T08:34:43.975Z,54.86
2016-02-04T08:35:44.040Z,54.48
2016-02-04T08:36:44.090Z,54.86
2016-02-04T08:37:44.140Z,54.77
2016-02-04T08:38:44.189Z,54.77
2016-02-04T08:39:45.146Z,55.24
2016-02-04T08:40:44.289Z,55.34
2016-02-04T08:41:44.354Z,54.86
2016-02-04T08:42:44.388Z,54.67
2016-02-04T08:43:44.443Z,54.77
2016-02-04T08:44:44.508Z,55.02
2016-02-04T08:45:44.542Z,54.77
2016-02-04T08:46:44.608Z,54.96
2016-02-04T08:47:44.658Z,54.74
2016-02-04T08:48:44.723Z,55.53
2016-02-04T08:49:44.756Z,55.12
2016-02-04T08:50:44.808Z,54.96
2016-02-04T08:51:44.869Z,55.12
2016-02-04T08:52:44.919Z,55.44
2016-02-04T08:53:44.968Z,54.93
2016-02-04T08:54:45.018Z,55.51
2016-02-04T08:55:45.301Z,55.22
2016-02-04T08:56:45.117Z,55.02
2016-02-04T08:57:45.182Z,55.12
2016-02-04T08:58:45.232Z,55.12
2016-02-04T08:59:45.281Z,55.6
2016-02-04T09:00:45.330Z,55.79
2016-02-04T09:01:45.396Z,55.79
2016-02-04T09:02:45.742Z,55.88
2016-02-04T09:03:45.496Z,55.41
2016-02-04T09:04:45.530Z,55.22
2016-02-04T09:05:45.954Z,55.6
2016-02-04T09:06:47.067Z,55.69
2016-02-04T09:07:46.616Z,55.88
2016-02-04T09:08:45.822Z,55.6
2016-02-04T09:09:46.559Z,55.79
2016-02-04T09:10:46.906Z,55.69
2016-02-04T09:11:45.612Z,56.27
2016-02-04T09:12:47.036Z,55.12
2016-02-04T09:13:47.917Z,55.6
2016-02-04T09:14:45.639Z,55.79
2016-02-04T09:15:46.126Z,56.17
2016-02-04T09:16:46.161Z,55.79
2016-02-04T09:17:46.226Z,55.79
2016-02-04T09:18:46.276Z,55.22
2016-02-04T09:19:46.332Z,55.51
2016-02-04T09:20:46.384Z,55.31
2016-02-04T09:21:47.840Z,55.51
2016-02-04T09:22:46.484Z,55.22
2016-02-04T09:23:46.535Z,55.79
2016-02-04T09:24:46.584Z,55.6
2016-02-04T09:25:46.649Z,55.31
2016-02-04T09:26:46.683Z,55.69
2016-02-04T09:27:46.748Z,55.79
2016-02-04T09:28:46.814Z,55.69
2016-02-04T09:29:46.847Z,55.41
2016-02-04T09:30:46.898Z,55.6
2016-02-04T09:31:46.963Z,55.88
2016-02-04T09:32:47.434Z,55.51
2016-02-04T09:33:47.063Z,55.69
2016-02-04T09:34:47.113Z,55.98
2016-02-04T09:35:47.162Z,53.88
2016-02-04T09:36:47.212Z,52.54
2016-02-04T09:37:47.261Z,53.59
2016-02-04T09:38:47.310Z,54.74
2016-02-04T09:39:47.407Z,55.41
2016-02-04T09:40:47.269Z,54.55
2016-02-04T09:41:47.490Z,54.45
2016-02-04T09:42:47.525Z,55.22
2016-02-04T09:43:47.573Z,55.02
2016-02-04T09:44:47.639Z,55.79
2016-02-04T09:45:47.689Z,55.41
2016-02-04T09:46:47.739Z,55.69
2016-02-04T09:47:47.789Z,55.6
2016-02-04T09:48:47.838Z,55.69
2016-02-04T09:49:47.887Z,55.41
2016-02-04T09:50:47.970Z,55.02
2016-02-04T09:51:48.004Z,55.31
2016-02-04T09:52:48.038Z,55.22
2016-02-04T09:53:48.102Z,55.41
2016-02-04T09:54:48.187Z,55.6
2016-02-04T09:55:48.205Z,55.22
2016-02-04T09:56:48.272Z,55.02
2016-02-04T09:57:48.306Z,55.02
2016-02-04T09:58:48.371Z,55.12
2016-02-04T09:59:48.420Z,54.93
2016-02-04T10:00:48.454Z,55.02
2016-02-04T10:01:48.520Z,54.83
2016-02-04T10:02:48.573Z,55.22
2016-02-04T10:03:48.622Z,54.83
2016-02-04T10:04:48.671Z,55.02
2016-02-04T10:05:48.736Z,55.02
2016-02-04T10:06:48.787Z,54.83
2016-02-04T10:07:48.837Z,55.31
2016-02-04T10:08:48.887Z,55.31
2016-02-04T10:09:48.935Z,55.02
2016-02-04T10:10:48.985Z,55.02
2016-02-04T10:11:49.050Z,55.12
2016-02-04T10:12:49.085Z,55.12
2016-02-04T10:13:49.134Z,55.02
2016-02-04T10:14:49.199Z,55.02
2016-02-04T10:15:49.639Z,55.12
2016-02-04T10:16:49.689Z,55.12
2016-02-04T10:17:49.348Z,55.12
2016-02-04T10:18:49.397Z,54.93
2016-02-04T10:19:49.449Z,55.22
2016-02-04T10:20:49.485Z,55.12
2016-02-04T10:21:49.535Z,55.22
2016-02-04T10:22:49.558Z,55.02
2016-02-04T10:23:49.614Z,55.02
2016-02-04T10:24:49.651Z,55.12
2016-02-04T10:25:49.680Z,55.02
2016-02-04T10:26:49.803Z,55.41
2016-02-04T10:27:49.786Z,55.31
2016-02-04T10:28:49.832Z,55.02
2016-02-04T10:29:49.924Z,55.12
2016-02-04T10:30:49.925Z,55.22
2016-02-04T10:31:49.972Z,55.41
2016-02-04T10:32:50.036Z,55.31
2016-02-04T10:33:50.100Z,55.69
2016-02-04T10:34:50.133Z,55.02
2016-02-04T10:35:50.197Z,55.02
2016-02-04T10:36:50.513Z,55.02
2016-02-04T10:37:50.296Z,54.74
2016-02-04T10:38:50.345Z,55.02
2016-02-04T10:39:50.378Z,54.93
2016-02-04T10:40:50.444Z,54.93
2016-02-04T10:41:50.493Z,55.02
2016-02-04T10:42:50.196Z,55.22
2016-02-04T10:43:50.605Z,55.02
2016-02-04T10:44:50.657Z,55.02
2016-02-04T10:45:50.707Z,54.74
2016-02-04T10:46:50.772Z,55.02
2016-02-04T10:47:50.805Z,54.83
2016-02-04T10:48:50.871Z,54.93
2016-02-04T10:49:50.921Z,55.02
2016-02-04T10:50:50.971Z,55.02
2016-02-04T10:51:51.692Z,55.41
2016-02-04T10:52:51.070Z,54.93
2016-02-04T10:53:51.119Z,55.51
2016-02-04T10:54:51.186Z,55.02
2016-02-04T10:55:51.220Z,55.41
2016-02-04T10:56:51.270Z,55.22
2016-02-04T10:57:51.350Z,55.6
2016-02-04T10:58:51.384Z,55.31
2016-02-04T10:59:51.466Z,55.6
2016-02-04T11:00:51.485Z,55.69
2016-02-04T11:01:51.549Z,55.51
2016-02-04T11:02:51.959Z,55.6
2016-02-04T11:03:51.477Z,55.41
2016-02-04T11:04:51.699Z,55.98
2016-02-04T11:05:51.732Z,55.79
2016-02-04T11:06:51.802Z,56.08
2016-02-04T11:07:51.852Z,56.08
2016-02-04T11:08:52.697Z,56.08
2016-02-04T11:09:51.950Z,56.27
2016-02-04T11:10:52.000Z,56.46
2016-02-04T11:11:52.050Z,56.75
2016-02-04T11:12:52.116Z,56.65
2016-02-04T11:13:52.165Z,56.65
2016-02-04T11:14:52.200Z,56.37
2016-02-04T11:15:52.281Z,56.46
2016-02-04T11:16:52.768Z,56.37
2016-02-04T11:17:52.380Z,56.46
2016-02-04T11:18:52.431Z,56.46
2016-02-04T11:19:52.480Z,56.37
2016-02-04T11:20:52.561Z,56.65
2016-02-04T11:21:52.642Z,56.65
2016-02-04T11:22:52.691Z,56.84
2016-02-04T11:23:52.693Z,56.94
2016-02-04T11:24:52.728Z,56.94
2016-02-04T11:25:52.792Z,56.56
2016-02-04T11:26:52.843Z,56.65
2016-02-04T11:27:52.893Z,56.65
2016-02-04T11:28:52.942Z,56.84
2016-02-04T11:29:53.007Z,56.94
2016-02-04T11:30:53.042Z,56.75
2016-02-04T11:31:53.096Z,56.94
2016-02-04T11:32:53.146Z,56.46
2016-02-04T11:33:53.211Z,56.37
2016-02-04T11:34:53.245Z,56.46
2016-02-04T11:35:53.295Z,57.04
2016-02-04T11:36:53.360Z,56.75
2016-02-04T11:37:53.425Z,56.46
2016-02-04T11:38:53.460Z,55.98
2016-02-04T11:39:53.509Z,56.37
2016-02-04T11:40:53.574Z,56.65
2016-02-04T11:41:53.624Z,56.84
2016-02-04T11:42:53.658Z,56.84
2016-02-04T11:43:53.744Z,56.65
2016-02-04T11:44:53.777Z,56.56
2016-02-04T11:45:53.842Z,56.84
2016-02-04T11:46:53.892Z,56.65
2016-02-04T11:47:53.957Z,56.37
2016-02-04T11:48:54.022Z,56.37
2016-02-04T11:49:54.055Z,56.46
2016-02-04T11:50:54.090Z,56.37
2016-02-04T11:51:54.158Z,56.56
2016-02-04T11:52:54.223Z,56.37
2016-02-04T11:53:54.241Z,56.37
2016-02-04T11:54:54.290Z,56.56
2016-02-04T11:55:54.359Z,56.27
2016-02-04T11:56:54.392Z,55.69
2016-02-04T11:57:54.473Z,56.17
2016-02-04T11:58:54.507Z,56.17
2016-02-04T11:59:54.572Z,55.98
2016-02-04T12:00:54.653Z,56.56
2016-02-04T12:01:54.656Z,55.79
2016-02-04T12:02:54.721Z,56.08
2016-02-04T12:03:54.756Z,55.6
2016-02-04T12:04:54.821Z,55.98
2016-02-04T12:05:54.871Z,56.17
2016-02-04T12:06:54.921Z,55.79
2016-02-04T12:07:54.970Z,55.98
2016-02-04T12:08:55.035Z,55.98
2016-02-04T12:09:55.084Z,55.98
2016-02-04T12:10:55.134Z,56.08
2016-02-04T12:11:55.184Z,56.27
2016-02-04T12:12:55.234Z,55.69
2016-02-04T12:13:55.284Z,55.98
2016-02-04T12:14:55.332Z,55.79
2016-02-04T12:15:55.399Z,55.88
2016-02-04T12:16:55.432Z,56.17
2016-02-04T12:17:55.513Z,55.88
2016-02-04T12:18:55.549Z,56.08
2016-02-04T12:19:55.597Z,55.88
2016-02-04T12:20:55.647Z,55.98
2016-02-04T12:21:55.712Z,56.08
2016-02-04T12:22:55.746Z,55.69
2016-02-04T12:23:55.829Z,55.88
2016-02-04T12:24:55.895Z,55.88
2016-02-04T12:25:55.913Z,55.79
2016-02-04T12:26:55.962Z,55.79
2016-02-04T12:27:56.012Z,55.79
2016-02-04T12:28:56.061Z,55.79
2016-02-04T12:29:56.126Z,55.79
2016-02-04T12:30:56.177Z,55.88
2016-02-04T12:31:56.242Z,55.69
2016-02-04T12:32:56.276Z,55.69
2016-02-04T12:33:56.326Z,55.79
2016-02-04T12:34:56.391Z,55.41
2016-02-04T12:35:56.428Z,56.17
2016-02-04T12:36:56.508Z,55.51
2016-02-04T12:37:56.526Z,55.69
2016-02-04T12:38:56.592Z,55.6
2016-02-04T12:39:56.641Z,55.69
2016-02-04T12:40:56.694Z,56.08
2016-02-04T12:41:56.744Z,55.51
2016-02-04T12:42:56.802Z,55.6
2016-02-04T12:43:56.852Z,55.51
2016-02-04T12:44:56.902Z,55.6
2016-02-04T12:45:56.952Z,55.69
2016-02-04T12:46:57.001Z,55.69
2016-02-04T12:47:57.051Z,55.41
2016-02-04T12:48:57.116Z,55.6
2016-02-04T12:49:57.181Z,55.6
2016-02-04T12:50:57.200Z,55.69
2016-02-04T12:51:57.281Z,55.88
2016-02-04T12:52:57.315Z,55.51
2016-02-04T12:53:57.381Z,55.41
2016-02-04T12:54:57.414Z,55.31
2016-02-04T12:55:57.472Z,55.6